Time;durP1;ratioP1;P1;durP2;ratioP2;P2;SDS_P1;SDS_P2;PMS_P1;PMS_P2;Temp;Humidity;BMP_temperature;BMP_pressure;BME280_temperature;BME280_humidity;BME280_pressure;Samples;Min_cycle;Max_cycle;Signal;HPM_P1;HPM_P2
2024/02/11 00:02:03;;;;;;;;;;;;;;;12.17;85.52;98262.31;5001075;28;19922;-84
2024/02/11 00:04:55;;;;;;;;;;;;;;;12.17;85.39;98260.38;4996386;28;19921;-84
2024/02/11 00:07:47;;;;;;;;;;;;;;;12.16;85.19;98256.06;4993626;28;19922;-84
2024/02/11 00:10:36;;;;;;;;;;;;;;;12.16;84.78;98249.84;4997487;28;19918;-84
2024/02/11 00:13:28;;;;;;;;;;;;;;;12.25;85.08;98258.41;5000526;28;19918;-84
2024/02/11 00:16:18;;;;;;;;;;;;;;;12.36;84.29;98253.78;5000132;28;19917;-84
2024/02/11 00:19:10;;;;;;;;;;;;;;;12.46;83.75;98244.84;4996204;28;20387;-84
2024/02/11 00:22:02;;;;;;;;;;;;;;;12.44;83.52;98242.50;5000398;28;19922;-84
2024/02/11 00:24:54;;;;;;;;;;;;;;;12.42;83.78;98235.88;5000582;28;20383;-84
2024/02/11 00:27:49;;;;;;;;;;;;;;;12.46;83.32;98236.66;4999042;28;19921;-85
2024/02/11 00:30:40;;;;;;;;;;;;;;;12.41;83.60;98242.50;5000118;28;20379;-84
2024/02/11 00:33:34;;;;;;;;;;;;;;;12.34;83.78;98240.53;4992969;28;20152;-84
2024/02/11 00:36:26;;;;;;;;;;;;;;;12.34;83.57;98235.06;4999979;28;19918;-85
2024/02/11 00:39:15;;;;;;;;;;;;;;;12.39;83.42;98228.50;4995986;28;19918;-84
2024/02/11 00:42:07;;;;;;;;;;;;;;;12.36;83.50;98231.97;5011570;28;19929;-86
2024/02/11 00:44:56;;;;;;;;;;;;;;;12.30;83.13;98228.84;5004210;28;19917;-86
2024/02/11 00:47:48;;;;;;;;;;;;;;;12.04;83.96;98231.16;5002571;28;19918;-85
2024/02/11 00:50:40;;;;;;;;;;;;;;;11.78;85.79;98227.56;4999298;28;19921;-85
2024/02/11 00:53:32;;;;;;;;;;;;;;;11.76;85.73;98229.88;5003457;28;19918;-85
2024/02/11 00:56:24;;;;;;;;;;;;;;;11.76;86.03;98229.09;5002589;28;20307;-85
2024/02/11 00:59:16;;;;;;;;;;;;;;;11.68;86.34;98225.56;4998904;28;19917;-85
2024/02/11 01:02:09;;;;;;;;;;;;;;;11.62;86.30;98227.09;5002428;28;19922;-86
2024/02/11 01:04:58;;;;;;;;;;;;;;;11.57;86.43;98222.78;4998406;28;20387;-85
2024/02/11 01:07:50;;;;;;;;;;;;;;;11.54;86.90;98222.75;4995897;28;19918;-85
2024/02/11 01:10:40;;;;;;;;;;;;;;;11.51;87.03;98221.59;5001377;28;19917;-84
2024/02/11 01:13:31;;;;;;;;;;;;;;;11.48;86.98;98218.84;4997540;28;19917;-84
2024/02/11 01:16:24;;;;;;;;;;;;;;;11.42;87.00;98215.72;4996512;28;19918;-84
2024/02/11 01:19:16;;;;;;;;;;;;;;;11.44;87.30;98216.09;5001328;28;19918;-85
2024/02/11 01:22:05;;;;;;;;;;;;;;;11.41;87.32;98211.44;5004083;28;19922;-83
2024/02/11 01:24:57;;;;;;;;;;;;;;;11.42;87.10;98202.13;4997253;28;20395;-83
2024/02/11 01:27:49;;;;;;;;;;;;;;;11.35;86.89;98204.78;5000450;28;19918;-83
2024/02/11 01:30:42;;;;;;;;;;;;;;;11.29;87.38;98203.59;5003765;28;19925;-84
2024/02/11 01:33:31;;;;;;;;;;;;;;;11.26;87.60;98198.16;5003559;28;19921;-84
2024/02/11 01:36:23;;;;;;;;;;;;;;;11.31;87.69;98200.50;4999169;28;20471;-84
2024/02/11 01:39:20;;;;;;;;;;;;;;;11.32;87.64;98202.84;4997988;28;19918;-84
2024/02/11 01:42:12;;;;;;;;;;;;;;;11.33;87.51;98195.44;5000542;28;19921;-84
2024/02/11 01:45:04;;;;;;;;;;;;;;;11.31;87.35;98197.78;5003462;28;19918;-83
2024/02/11 01:47:53;;;;;;;;;;;;;;;11.23;87.34;98196.94;4995195;28;19917;-82
2024/02/11 01:50:47;;;;;;;;;;;;;;;11.27;87.63;98188.84;5002934;28;19918;-83
2024/02/11 01:53:39;;;;;;;;;;;;;;;11.22;87.59;98189.19;5003802;28;19921;-85
2024/02/11 01:56:32;;;;;;;;;;;;;;;11.23;87.45;98185.28;5002334;28;20307;-84
2024/02/11 01:59:24;;;;;;;;;;;;;;;11.27;87.38;98186.09;4998575;28;19921;-84
2024/02/11 02:02:16;;;;;;;;;;;;;;;11.30;87.35;98185.34;4996470;28;20298;-84
2024/02/11 02:05:07;;;;;;;;;;;;;;;11.30;87.00;98177.16;5000139;28;19917;-84
2024/02/11 02:07:58;;;;;;;;;;;;;;;11.37;86.94;98171.78;4990801;28;19918;-83
2024/02/11 02:10:48;;;;;;;;;;;;;;;11.35;86.67;98174.09;5002223;28;20382;-84
2024/02/11 02:13:40;;;;;;;;;;;;;;;11.32;86.12;98163.97;4999344;28;19917;-84
2024/02/11 02:16:32;;;;;;;;;;;;;;;11.32;86.20;98161.25;4997040;28;20378;-84
2024/02/11 02:19:24;;;;;;;;;;;;;;;11.35;85.56;98157.75;4997728;28;20372;-84
2024/02/11 02:22:16;;;;;;;;;;;;;;;11.27;85.63;98151.53;5002286;28;20299;-83
2024/02/11 02:25:08;;;;;;;;;;;;;;;11.29;85.60;98148.41;5001357;28;19922;-83
2024/02/11 02:28:00;;;;;;;;;;;;;;;11.30;85.50;98147.25;5000226;28;19913;-83
2024/02/11 02:30:52;;;;;;;;;;;;;;;11.30;85.51;98150.75;5001861;28;19914;-84
2024/02/11 02:33:44;;;;;;;;;;;;;;;11.28;85.22;98139.47;4995138;28;19917;-84
2024/02/11 02:36:36;;;;;;;;;;;;;;;11.24;85.51;98144.13;5001776;28;19918;-84
2024/02/11 02:39:28;;;;;;;;;;;;;;;11.23;85.25;98133.59;4996822;28;20375;-84
2024/02/11 02:42:20;;;;;;;;;;;;;;;11.27;85.78;98139.88;5001770;28;20303;-82
2024/02/11 02:45:12;;;;;;;;;;;;;;;11.27;85.16;98146.09;4997080;28;19917;-83
2024/02/11 02:48:04;;;;;;;;;;;;;;;11.30;84.80;98145.31;5000661;28;19918;-83
2024/02/11 02:50:57;;;;;;;;;;;;;;;11.37;84.56;98144.56;4998646;28;19918;-84
2024/02/11 02:53:49;;;;;;;;;;;;;;;11.36;84.01;98151.16;5013499;28;19918;-86
2024/02/11 02:56:41;;;;;;;;;;;;;;;11.22;84.91;98151.13;5005682;28;19917;-85
2024/02/11 02:59:33;;;;;;;;;;;;;;;11.26;84.77;98149.19;5000348;28;20387;-84
2024/02/11 03:02:25;;;;;;;;;;;;;;;11.24;84.68;98157.72;5005288;28;19922;-83
2024/02/11 03:05:17;;;;;;;;;;;;;;;11.02;85.88;98158.78;5004465;28;20395;-84
2024/02/11 03:08:12;;;;;;;;;;;;;;;10.97;86.39;98165.34;4999385;28;19918;-85
2024/02/11 03:11:04;;;;;;;;;;;;;;;11.00;86.68;98164.59;4997509;28;19917;-84
2024/02/11 03:13:56;;;;;;;;;;;;;;;11.02;86.98;98162.25;5001200;28;19917;-84
2024/02/11 03:16:48;;;;;;;;;;;;;;;11.09;86.52;98162.31;5003636;28;19922;-84
2024/02/11 03:19:39;;;;;;;;;;;;;;;11.07;86.68;98158.44;4998376;28;19922;-84
2024/02/11 03:22:31;;;;;;;;;;;;;;;11.15;86.27;98162.72;5002777;28;19922;-83
2024/02/11 03:25:23;;;;;;;;;;;;;;;11.12;86.60;98161.53;4997727;28;19918;-84
2024/02/11 03:28:15;;;;;;;;;;;;;;;11.15;85.91;98166.22;5000699;28;20029;-84
2024/02/11 03:31:07;;;;;;;;;;;;;;;11.13;86.54;98168.53;5002197;28;19917;-84
2024/02/11 03:33:59;;;;;;;;;;;;;;;11.20;86.46;98172.47;4995496;28;19922;-85
2024/02/11 03:36:51;;;;;;;;;;;;;;;11.17;85.63;98178.69;5002066;28;19918;-84
2024/02/11 03:39:43;;;;;;;;;;;;;;;11.05;86.60;98166.97;4996212;28;19918;-85
2024/02/11 03:42:34;;;;;;;;;;;;;;;11.12;86.39;98169.69;5000443;28;19922;-84
2024/02/11 03:45:26;;;;;;;;;;;;;;;11.13;85.98;98171.25;5001400;28;19918;-84
2024/02/11 03:48:18;;;;;;;;;;;;;;;11.20;85.55;98165.09;4999914;28;19922;-84
2024/02/11 03:51:10;;;;;;;;;;;;;;;11.20;85.59;98162.38;4999558;28;19918;-84
2024/02/11 03:54:05;;;;;;;;;;;;;;;11.12;85.01;98164.25;5001282;28;19918;-84
2024/02/11 03:56:57;;;;;;;;;;;;;;;11.10;85.07;98161.16;4994567;28;19917;-83
2024/02/11 03:59:48;;;;;;;;;;;;;;;11.21;85.07;98166.66;4995334;28;19922;-84
2024/02/11 04:02:40;;;;;;;;;;;;;;;11.17;84.34;98156.91;4995401;28;19926;-84
2024/02/11 04:05:32;;;;;;;;;;;;;;;11.18;85.24;98164.69;4998701;28;19921;-84
2024/02/11 04:08:24;;;;;;;;;;;;;;;11.20;85.67;98170.53;4996471;28;19917;-84
2024/02/11 04:11:16;;;;;;;;;;;;;;;11.18;84.96;98169.34;4994398;28;19921;-83
2024/02/11 04:14:09;;;;;;;;;;;;;;;11.12;85.25;98161.53;4997382;28;19922;-83
2024/02/11 04:17:01;;;;;;;;;;;;;;;11.07;85.68;98164.63;4995090;28;19922;-82
2024/02/11 04:19:54;;;;;;;;;;;;;;;11.07;85.99;98164.63;4994319;28;20310;-83
2024/02/11 04:22:46;;;;;;;;;;;;;;;11.09;85.91;98162.31;5000426;28;19922;-84
2024/02/11 04:25:41;;;;;;;;;;;;;;;11.10;86.00;98169.31;5000189;28;19918;-84
2024/02/11 04:28:33;;;;;;;;;;;;;;;11.13;85.81;98171.25;4997271;28;19929;-83
2024/02/11 04:31:25;;;;;;;;;;;;;;;11.19;85.43;98165.47;4995314;28;19918;-83
2024/02/11 04:34:17;;;;;;;;;;;;;;;11.20;85.25;98172.47;4993627;28;19918;-83
2024/02/11 04:37:06;;;;;;;;;;;;;;;11.20;84.86;98173.25;4991640;28;20008;-84
2024/02/11 04:39:58;;;;;;;;;;;;;;;11.20;84.69;98172.47;4994048;28;19926;-83
2024/02/11 04:42:54;;;;;;;;;;;;;;;11.17;84.66;98184.13;4991001;28;20306;-83
2024/02/11 04:45:43;;;;;;;;;;;;;;;11.11;84.99;98176.31;4982428;28;19922;-84
2024/02/11 04:48:35;;;;;;;;;;;;;;;11.11;84.97;98180.97;4993998;28;20395;-83
2024/02/11 04:51:28;;;;;;;;;;;;;;;11.10;84.94;98180.19;4996835;28;19922;-82
2024/02/11 04:54:20;;;;;;;;;;;;;;;11.08;85.67;98177.06;4997915;28;20314;-83
2024/02/11 04:57:12;;;;;;;;;;;;;;;11.12;85.88;98182.53;4998919;28;19985;-84
2024/02/11 05:00:05;;;;;;;;;;;;;;;11.05;86.13;98175.13;4981240;28;19922;-83
2024/02/11 05:03:01;;;;;;;;;;;;;;;11.03;86.21;98173.91;4986650;28;19921;-86
2024/02/11 05:05:53;;;;;;;;;;;;;;;11.02;86.38;98173.13;4987366;28;20376;-85
2024/02/11 05:08:45;;;;;;;;;;;;;;;11.03;86.08;98169.25;4988025;28;19926;-84
2024/02/11 05:11:36;;;;;;;;;;;;;;;11.08;86.04;98159.97;4983075;28;19922;-83
2024/02/11 05:14:29;;;;;;;;;;;;;;;11.12;85.68;98166.97;4992425;28;19922;-83
2024/02/11 05:17:21;;;;;;;;;;;;;;;11.09;85.71;98165.03;4991048;28;19925;-85
2024/02/11 05:20:16;;;;;;;;;;;;;;;11.07;85.58;98167.34;4991892;28;19922;-84
2024/02/11 05:23:08;;;;;;;;;;;;;;;11.06;85.86;98165.00;4995929;28;19926;-83
2024/02/11 05:26:03;;;;;;;;;;;;;;;11.03;85.75;98165.75;4987917;28;19918;-83
2024/02/11 05:28:57;;;;;;;;;;;;;;;11.03;86.01;98163.03;4997191;28;19918;-81
2024/02/11 05:31:49;;;;;;;;;;;;;;;11.01;85.91;98166.16;5001084;28;19922;-82
2024/02/11 05:34:41;;;;;;;;;;;;;;;10.99;85.98;98179.34;4999756;28;20379;-85
2024/02/11 05:37:33;;;;;;;;;;;;;;;10.98;86.25;98171.56;4984330;28;20576;-87
2024/02/11 05:40:25;;;;;;;;;;;;;;;11.05;85.71;98175.13;4980959;28;19918;-87
2024/02/11 05:43:23;;;;;;;;;;;;;;;10.99;85.53;98173.91;4980768;28;20620;-87
2024/02/11 05:46:15;;;;;;;;;;;;;;;10.90;86.03;98178.91;4980892;28;19918;-87
2024/02/11 05:49:07;;;;;;;;;;;;;;;10.85;86.13;98176.53;4977075;28;19918;-88
2024/02/11 05:51:59;;;;;;;;;;;;;;;10.83;86.22;98180.78;4995881;28;19922;-86
2024/02/11 05:54:56;;;;;;;;;;;;;;;10.83;86.51;98175.34;5000405;28;19917;-88
2024/02/11 05:57:48;;;;;;;;;;;;;;;10.82;86.71;98188.16;5000884;28;19918;-85
2024/02/11 06:00:42;;;;;;;;;;;;;;;10.85;86.28;98187.41;4999759;28;19918;-84
2024/02/11 06:03:35;;;;;;;;;;;;;;;10.91;86.10;98188.63;5004156;28;19926;-83
2024/02/11 06:06:27;;;;;;;;;;;;;;;10.90;85.76;98189.78;5004492;28;19917;-85
2024/02/11 06:09:21;;;;;;;;;;;;;;;10.92;85.97;98198.31;4999050;28;19922;-82
2024/02/11 06:12:13;;;;;;;;;;;;;;;10.85;86.10;98201.00;4997228;28;20313;-85
2024/02/11 06:15:05;;;;;;;;;;;;;;;10.90;86.24;98203.38;4983693;28;19918;-85
2024/02/11 06:17:57;;;;;;;;;;;;;;;11.01;85.82;98206.94;4983653;28;19918;-85
2024/02/11 06:20:49;;;;;;;;;;;;;;;11.00;85.18;98207.31;4984294;28;19922;-86
2024/02/11 06:23:41;;;;;;;;;;;;;;;10.86;85.86;98218.88;4981146;28;19922;-85
2024/02/11 06:26:33;;;;;;;;;;;;;;;10.88;85.72;98227.44;4983207;28;19918;-85
2024/02/11 06:29:26;;;;;;;;;;;;;;;10.84;86.22;98237.50;4978855;28;19918;-84
2024/02/11 06:32:18;;;;;;;;;;;;;;;10.86;86.59;98229.75;4983487;28;19918;-85
2024/02/11 06:35:10;;;;;;;;;;;;;;;10.80;86.42;98244.88;4980783;28;20311;-87
2024/02/11 06:37:59;;;;;;;;;;;;;;;10.88;86.61;98241.03;4983592;28;19922;-84
2024/02/11 06:40:51;;;;;;;;;;;;;;;10.91;86.38;98248.44;4982868;28;19918;-83
2024/02/11 06:43:43;;;;;;;;;;;;;;;10.89;85.65;98258.91;4983006;28;19922;-84
2024/02/11 06:46:35;;;;;;;;;;;;;;;10.93;86.41;98261.63;4982780;28;20303;-84
2024/02/11 06:49:28;;;;;;;;;;;;;;;10.96;85.75;98275.28;4977887;28;19922;-84
2024/02/11 06:52:17;;;;;;;;;;;;;;;10.97;85.90;98284.22;4982455;28;19918;-85
2024/02/11 06:55:10;;;;;;;;;;;;;;;10.93;85.91;98277.94;4978447;28;19922;-84
2024/02/11 06:58:02;;;;;;;;;;;;;;;10.92;86.66;98288.06;4981155;28;19918;-84
2024/02/11 07:00:54;;;;;;;;;;;;;;;11.01;86.13;98291.25;4982381;28;19918;-83
2024/02/11 07:03:46;;;;;;;;;;;;;;;11.00;86.00;98300.56;4982001;28;20299;-83
2024/02/11 07:06:43;;;;;;;;;;;;;;;10.96;86.15;98307.91;4981687;28;20288;-85
2024/02/11 07:09:34;;;;;;;;;;;;;;;11.00;86.52;98308.72;4977527;28;19918;-84
2024/02/11 07:12:26;;;;;;;;;;;;;;;11.00;86.30;98310.66;4981749;28;19918;-84
2024/02/11 07:15:18;;;;;;;;;;;;;;;11.08;86.33;98320.41;4978713;28;20145;-85
2024/02/11 07:18:10;;;;;;;;;;;;;;;11.14;85.60;98327.84;4996591;28;19927;-85
2024/02/11 07:21:00;;;;;;;;;;;;;;;11.13;85.28;98329.00;4985112;28;19918;-86
2024/02/11 07:23:52;;;;;;;;;;;;;;;11.15;85.88;98334.88;4984573;28;19922;-86
2024/02/11 07:26:43;;;;;;;;;;;;;;;11.19;85.90;98339.53;4981409;28;19918;-85
2024/02/11 07:29:35;;;;;;;;;;;;;;;11.16;86.45;98343.81;4979989;28;20372;-85
2024/02/11 07:32:27;;;;;;;;;;;;;;;11.12;86.81;98345.72;4967975;28;19919;-85
2024/02/11 07:35:19;;;;;;;;;;;;;;;11.14;86.89;98346.13;4985289;28;19918;-85
2024/02/11 07:38:16;;;;;;;;;;;;;;;11.21;86.87;98348.13;4985260;28;19918;-84
2024/02/11 07:41:09;;;;;;;;;;;;;;;11.25;86.78;98354.34;4985783;28;19922;-86
2024/02/11 07:44:06;;;;;;;;;;;;;;;11.26;86.14;98354.00;4985691;28;19922;-85
2024/02/11 07:46:58;;;;;;;;;;;;;;;11.22;86.78;98355.91;4985759;28;19922;-85
2024/02/11 07:49:50;;;;;;;;;;;;;;;11.24;86.65;98364.47;4980122;28;19918;-85
2024/02/11 07:52:43;;;;;;;;;;;;;;;11.27;86.77;98362.94;4984881;28;19926;-85
2024/02/11 07:55:35;;;;;;;;;;;;;;;11.26;86.85;98372.25;4984370;28;20387;-85
2024/02/11 07:58:27;;;;;;;;;;;;;;;11.31;86.91;98377.34;4981438;28;20392;-85
2024/02/11 08:01:17;;;;;;;;;;;;;;;11.33;86.90;98377.72;4980635;28;19926;-85
2024/02/11 08:04:12;;;;;;;;;;;;;;;11.47;86.52;98380.59;4978804;28;19926;-81
2024/02/11 08:07:04;;;;;;;;;;;;;;;11.65;84.60;98388.84;4987779;28;19922;-81
2024/02/11 08:10:01;;;;;;;;;;;;;;;11.96;83.76;98394.53;4985414;28;19918;-84
2024/02/11 08:12:54;;;;;;;;;;;;;;;12.37;81.21;98400.56;4992396;28;19918;-81
2024/02/11 08:15:46;;;;;;;;;;;;;;;12.13;81.23;98401.25;4990714;28;19921;-80
2024/02/11 08:18:38;;;;;;;;;;;;;;;12.09;82.71;98405.13;4977151;28;20312;-80
2024/02/11 08:21:30;;;;;;;;;;;;;;;12.61;80.89;98410.00;4999205;28;20402;-80
2024/02/11 08:24:22;;;;;;;;;;;;;;;12.83;79.14;98417.06;4988390;28;19930;-80
2024/02/11 08:27:14;;;;;;;;;;;;;;;12.17;81.08;98420.31;4983973;28;19918;-80
2024/02/11 08:30:06;;;;;;;;;;;;;;;11.99;82.55;98421.00;4989081;28;19930;-81
2024/02/11 08:32:57;;;;;;;;;;;;;;;11.92;83.46;98423.69;4982751;28;20291;-82
2024/02/11 08:35:47;;;;;;;;;;;;;;;12.08;81.35;98436.25;4982849;28;19922;-81
2024/02/11 08:38:38;;;;;;;;;;;;;;;12.17;80.49;98431.22;4987295;28;19922;-81
2024/02/11 08:41:30;;;;;;;;;;;;;;;12.09;82.04;98440.53;4996380;28;19922;-82
2024/02/11 08:44:26;;;;;;;;;;;;;;;11.83;82.77;98439.59;4990855;28;19922;-81
2024/02/11 08:47:18;;;;;;;;;;;;;;;11.92;83.24;98442.75;5000037;28;20306;-81
2024/02/11 08:50:10;;;;;;;;;;;;;;;12.09;81.98;98444.00;4993865;28;19917;-81
2024/02/11 08:53:02;;;;;;;;;;;;;;;12.05;81.52;98447.88;4998899;28;19925;-81
2024/02/11 08:55:54;;;;;;;;;;;;;;;11.74;83.47;98451.94;4996494;28;19917;-80
2024/02/11 08:58:46;;;;;;;;;;;;;;;11.84;83.24;98456.69;4978056;28;20387;-81
2024/02/11 09:01:36;;;;;;;;;;;;;;;12.11;81.08;98462.72;4982108;28;20391;-80
2024/02/11 09:04:28;;;;;;;;;;;;;;;12.04;82.08;98458.00;4985705;28;19922;-81
2024/02/11 09:07:20;;;;;;;;;;;;;;;11.89;83.39;98459.84;4972952;28;19922;-80
2024/02/11 09:10:13;;;;;;;;;;;;;;;11.89;83.29;98459.84;4980079;28;19918;-80
2024/02/11 09:13:06;;;;;;;;;;;;;;;11.72;86.78;98476.03;4990422;28;19922;-81
2024/02/11 09:15:57;;;;;;;;;;;;;;;12.02;89.23;98462.25;4984039;28;19918;-82
2024/02/11 09:18:49;;;;;;;;;;;;;;;12.08;86.18;98464.25;4985681;28;19925;-79
2024/02/11 09:21:39;;;;;;;;;;;;;;;12.11;85.43;98471.66;4990836;28;19922;-81
2024/02/11 09:24:31;;;;;;;;;;;;;;;12.23;84.91;98463.19;4986148;28;19926;-81
2024/02/11 09:27:23;;;;;;;;;;;;;;;12.38;83.96;98464.81;4988507;28;19918;-81
2024/02/11 09:30:12;;;;;;;;;;;;;;;12.39;82.79;98471.06;4981026;28;19922;-81
2024/02/11 09:33:02;;;;;;;;;;;;;;;12.61;82.85;98467.25;4994758;28;19922;-79
2024/02/11 09:35:54;;;;;;;;;;;;;;;12.67;81.04;98471.16;4996568;28;19925;-81
2024/02/11 09:38:45;;;;;;;;;;;;;;;12.60;82.61;98465.69;4997781;28;19925;-80
2024/02/11 09:41:35;;;;;;;;;;;;;;;12.62;82.88;98474.25;5004228;28;19922;-79
2024/02/11 09:44:28;;;;;;;;;;;;;;;12.68;81.55;98478.19;4991912;28;19955;-80
2024/02/11 09:47:20;;;;;;;;;;;;;;;13.46;79.91;98477.63;4988514;28;19926;-81
2024/02/11 09:50:12;;;;;;;;;;;;;;;13.88;75.22;98483.09;4981569;28;19926;-79
2024/02/11 09:53:04;;;;;;;;;;;;;;;13.47;75.64;98484.63;4988300;28;19918;-78
2024/02/11 09:55:56;;;;;;;;;;;;;;;13.55;74.58;98481.53;5001529;28;19917;-79
2024/02/11 09:58:48;;;;;;;;;;;;;;;13.86;74.83;98485.44;4989578;28;19977;-81
2024/02/11 10:01:40;;;;;;;;;;;;;;;14.40;73.34;98495.13;4981771;28;19922;-80
2024/02/11 10:04:32;;;;;;;;;;;;;;;14.82;70.87;98507.13;5000210;28;19926;-84
2024/02/11 10:07:28;;;;;;;;;;;;;;;14.38;70.31;98500.22;4989053;28;19918;-83
2024/02/11 10:10:20;;;;;;;;;;;;;;;14.00;71.61;98501.03;4990959;28;19933;-84
2024/02/11 10:13:19;;;;;;;;;;;;;;;14.73;69.88;98504.03;4989859;28;20616;-83
2024/02/11 10:16:11;;;;;;;;;;;;;;;14.69;68.56;98509.50;4989807;28;19921;-86
2024/02/11 10:19:00;;;;;;;;;;;;;;;14.80;68.72;98504.00;4992593;28;19921;-86
2024/02/11 10:21:51;;;;;;;;;;;;;;;14.70;69.30;98518.50;4996971;28;19918;-85
2024/02/11 10:24:43;;;;;;;;;;;;;;;14.93;69.66;98508.63;4997106;28;19925;-83
2024/02/11 10:27:35;;;;;;;;;;;;;;;14.85;70.26;98517.25;4997145;28;20303;-86
2024/02/11 10:30:27;;;;;;;;;;;;;;;14.67;70.38;98516.56;4992499;28;20287;-86
2024/02/11 10:33:19;;;;;;;;;;;;;;;14.38;71.02;98516.63;4995045;28;19917;-87
2024/02/11 10:36:11;;;;;;;;;;;;;;;14.60;70.51;98511.88;4995063;28;19917;-84
2024/02/11 10:38:58;;;;;;;;;;;;;;;14.82;69.37;98515.34;4993926;28;20407;-84
2024/02/11 10:41:51;;;;;;;;;;;;;;;14.53;69.82;98514.63;5000133;28;20138;-82
2024/02/11 10:44:43;;;;;;;;;;;;;;;14.24;70.80;98521.31;4988648;28;19922;-83
2024/02/11 10:47:35;;;;;;;;;;;;;;;14.08;71.29;98521.72;4998849;28;20298;-84
2024/02/11 10:50:27;;;;;;;;;;;;;;;14.24;70.68;98526.78;4989633;28;19922;-85
2024/02/11 10:53:21;;;;;;;;;;;;;;;14.35;69.76;98533.00;4990319;28;20399;-86
2024/02/11 10:56:11;;;;;;;;;;;;;;;14.27;69.70;98526.78;4986739;28;19922;-86
2024/02/11 10:59:09;;;;;;;;;;;;;;;14.31;69.25;98532.25;4985487;28;19918;-86
2024/02/11 11:02:02;;;;;;;;;;;;;;;14.33;69.40;98527.16;4993963;28;19921;-85
2024/02/11 11:04:55;;;;;;;;;;;;;;;14.34;69.58;98529.50;4990151;28;19925;-86
2024/02/11 11:07:48;;;;;;;;;;;;;;;14.45;68.70;98526.78;4987254;28;19921;-84
2024/02/11 11:10:38;;;;;;;;;;;;;;;13.95;70.41;98526.81;4990927;28;19922;-86
2024/02/11 11:13:31;;;;;;;;;;;;;;;13.50;73.50;98517.44;4987022;28;19922;-87
2024/02/11 11:16:28;;;;;;;;;;;;;;;13.12;75.42;98527.06;4983425;28;19918;-86
2024/02/11 11:19:20;;;;;;;;;;;;;;;12.86;77.17;98530.84;4980431;28;19922;-85
2024/02/11 11:22:12;;;;;;;;;;;;;;;12.84;76.22;98527.75;4994512;28;19922;-88
2024/02/11 11:25:05;;;;;;;;;;;;;;;13.14;75.74;98526.69;4998065;28;20395;-88
2024/02/11 11:28:05;;;;;;;;;;;;;;;13.00;77.81;98526.63;4997160;28;19926;-87
2024/02/11 11:30:54;;;;;;;;;;;;;;;13.16;76.70;98535.25;4999589;28;19917;-87
2024/02/11 11:33:46;;;;;;;;;;;;;;;13.21;77.85;98530.22;4997663;28;20299;-87
2024/02/11 11:36:38;;;;;;;;;;;;;;;13.05;78.25;98523.53;4999287;28;19918;-86
2024/02/11 11:39:30;;;;;;;;;;;;;;;13.11;78.90;98521.97;4985085;28;20380;-87
2024/02/11 11:42:22;;;;;;;;;;;;;;;12.98;78.36;98527.00;4991388;28;19918;-87
2024/02/11 11:45:20;;;;;;;;;;;;;;;12.82;79.28;98532.00;5003723;28;19921;-88
2024/02/11 11:48:16;;;;;;;;;;;;;;;12.72;80.59;98522.63;5014008;28;20402;-87
2024/02/11 11:51:13;;;;;;;;;;;;;;;12.53;81.65;98522.91;5002423;28;19930;-85
2024/02/11 12:08:36;;;;;;;;;;;;;;;12.73;82.47;98528.84;5027098;28;19934;-85
2024/02/11 12:11:23;;;;;;;;;;;;;;;13.07;80.74;98527.41;5010618;28;19926;-86
2024/02/11 12:14:20;;;;;;;;;;;;;;;13.15;78.99;98517.34;5012482;28;19922;-86
2024/02/11 12:17:13;;;;;;;;;;;;;;;12.99;80.58;98523.13;5011031;28;19925;-86
2024/02/11 12:23:32;;;;;;;;;;;;;;;12.90;83.91;98532.81;5471551;23;19920;-86
2024/02/11 12:26:44;;;;;;;;;;;;;;;12.51;84.40;98522.50;5032581;28;19901;-84
2024/02/11 12:32:58;;;;;;;;;;;;;;;13.29;81.06;98528.31;5153761;23;20326;-86
2024/02/11 12:38:53;;;;;;;;;;;;;;;13.38;81.38;98531.44;5081461;23;19926;-86
2024/02/11 12:41:43;;;;;;;;;;;;;;;13.31;80.73;98530.66;4997577;28;19930;-85
2024/02/11 12:44:30;;;;;;;;;;;;;;;13.42;78.19;98525.97;4986258;28;19922;-86
2024/02/11 12:47:26;;;;;;;;;;;;;;;13.41;79.21;98530.66;4994490;28;19921;-85
2024/02/11 12:50:20;;;;;;;;;;;;;;;13.44;79.04;98529.88;4985924;28;19926;-86
2024/02/11 12:53:13;;;;;;;;;;;;;;;13.31;78.65;98525.94;4994730;28;19918;-85
2024/02/11 12:56:06;;;;;;;;;;;;;;;13.18;80.88;98530.22;4989929;28;19918;-86
2024/02/11 12:58:58;;;;;;;;;;;;;;;13.06;80.32;98536.75;4987651;28;19926;-86
2024/02/11 13:01:50;;;;;;;;;;;;;;;12.86;82.29;98536.31;4988091;28;19922;-85
2024/02/11 13:04:42;;;;;;;;;;;;;;;12.71;82.04;98540.13;5002402;28;19921;-85
2024/02/11 13:07:34;;;;;;;;;;;;;;;12.96;81.84;98539.44;4991572;28;20387;-86
2024/02/11 13:10:23;;;;;;;;;;;;;;;13.01;82.03;98539.09;4987666;28;19922;-85
2024/02/11 13:13:15;;;;;;;;;;;;;;;12.81;81.79;98542.13;4993379;28;19922;-85
2024/02/11 13:16:07;;;;;;;;;;;;;;;12.79;82.69;98536.28;4991482;28;20389;-83
2024/02/11 13:18:59;;;;;;;;;;;;;;;12.62;83.28;98536.97;4993910;28;19921;-84
2024/02/11 13:21:52;;;;;;;;;;;;;;;12.68;84.02;98540.91;4982919;28;19918;-85
2024/02/11 13:24:41;;;;;;;;;;;;;;;12.75;82.99;98546.38;4983939;28;19923;-85
2024/02/11 13:27:31;;;;;;;;;;;;;;;12.71;83.22;98545.59;5002883;28;19917;-84
2024/02/11 13:30:23;;;;;;;;;;;;;;;12.89;82.68;98548.41;5005998;28;19921;-85
2024/02/11 13:33:15;;;;;;;;;;;;;;;13.01;81.56;98544.53;4993681;28;19947;-85
2024/02/11 13:36:07;;;;;;;;;;;;;;;12.78;82.12;98545.63;4994780;28;19918;-85
2024/02/11 13:38:58;;;;;;;;;;;;;;;12.97;81.38;98549.19;4989508;28;19955;-84
2024/02/11 13:41:50;;;;;;;;;;;;;;;13.14;81.41;98548.53;4992526;28;19921;-84
2024/02/11 13:44:41;;;;;;;;;;;;;;;13.30;80.53;98551.69;4999837;28;19938;-84
2024/02/11 13:47:35;;;;;;;;;;;;;;;13.59;78.78;98547.84;4992543;28;19941;-84
2024/02/11 13:50:28;;;;;;;;;;;;;;;13.79;77.95;98559.19;4985561;28;19918;-85
2024/02/11 13:53:17;;;;;;;;;;;;;;;13.78;77.36;98556.84;4984065;28;19922;-85
2024/02/11 13:56:12;;;;;;;;;;;;;;;13.34;78.20;98568.09;4985313;28;19918;-85
2024/02/11 13:59:04;;;;;;;;;;;;;;;13.33;79.13;98561.06;4981463;28;19918;-85
2024/02/11 14:01:56;;;;;;;;;;;;;;;13.07;79.97;98564.84;4989706;28;19922;-84
2024/02/11 14:04:48;;;;;;;;;;;;;;;12.97;80.53;98565.56;4986383;28;19926;-84
2024/02/11 14:07:41;;;;;;;;;;;;;;;12.91;81.55;98578.78;4994282;28;19926;-84
2024/02/11 14:10:33;;;;;;;;;;;;;;;12.79;82.33;98577.19;4997726;28;19918;-85
2024/02/11 14:13:22;;;;;;;;;;;;;;;12.82;83.45;98575.63;4982567;28;19918;-85
2024/02/11 14:16:10;;;;;;;;;;;;;;;12.77;83.19;98576.78;4989672;28;20544;-85
2024/02/11 14:19:02;;;;;;;;;;;;;;;12.74;83.02;98577.56;4998110;28;19922;-83
2024/02/11 14:21:52;;;;;;;;;;;;;;;12.62;83.57;98577.88;4988032;28;19922;-82
2024/02/11 14:24:44;;;;;;;;;;;;;;;12.67;84.35;98580.25;4993982;28;20415;-84
2024/02/11 14:27:36;;;;;;;;;;;;;;;12.63;84.82;98582.16;4992518;28;19918;-84
2024/02/11 14:30:28;;;;;;;;;;;;;;;12.57;85.32;98583.69;4992019;28;19921;-85
2024/02/11 14:33:18;;;;;;;;;;;;;;;12.60;85.56;98591.09;4993766;28;20390;-84
2024/02/11 14:36:08;;;;;;;;;;;;;;;12.63;85.48;98587.63;4987213;28;20379;-85
2024/02/11 14:39:01;;;;;;;;;;;;;;;12.74;84.78;98590.41;4964779;28;20182;-85
2024/02/11 14:41:49;;;;;;;;;;;;;;;12.70;84.38;98584.91;4989723;28;19921;-85
2024/02/11 14:44:41;;;;;;;;;;;;;;;12.82;84.63;98586.56;4992898;28;19922;-85
2024/02/11 14:47:31;;;;;;;;;;;;;;;12.82;84.82;98597.47;4985065;28;19918;-86
2024/02/11 14:50:20;;;;;;;;;;;;;;;12.88;84.03;98598.66;4984081;28;19929;-85
2024/02/11 14:53:12;;;;;;;;;;;;;;;12.86;84.46;98603.72;4993092;28;19918;-84
2024/02/11 14:56:02;;;;;;;;;;;;;;;12.96;83.81;98602.97;4990382;28;19918;-86
2024/02/11 14:58:54;;;;;;;;;;;;;;;13.00;83.96;98603.81;4990402;28;19918;-85
2024/02/11 15:01:41;;;;;;;;;;;;;;;12.89;84.82;98602.97;4988102;28;19922;-85
2024/02/11 15:04:33;;;;;;;;;;;;;;;12.88;84.46;98606.06;4977717;28;19922;-83
2024/02/11 15:07:25;;;;;;;;;;;;;;;12.76;85.71;98602.50;4985264;28;19918;-84
2024/02/11 15:10:17;;;;;;;;;;;;;;;12.46;86.15;98612.81;4992074;28;19917;-83
2024/02/11 15:13:07;;;;;;;;;;;;;;;12.44;86.70;98605.00;5001805;28;19918;-84
2024/02/11 15:16:03;;;;;;;;;;;;;;;12.41;87.71;98611.22;4996385;28;20394;-83
2024/02/11 15:18:55;;;;;;;;;;;;;;;12.27;88.47;98607.63;4994277;28;20395;-83
2024/02/11 15:21:46;;;;;;;;;;;;;;;12.11;88.68;98612.53;5000655;28;19918;-83